Terminal Aerodrome Forecast
Issued by NWS

Home | Current Version | Previous Version | Text Only | Print | Product List | Glossary On
Versions: 1 2 3 4 5 6 7 8 9 10 11 12 13 14 15 16
000
FTAK31 PAJN 290520
TAFAJN
TAF
PAJN 290520Z 2906/3006 VRB03KT P6SM SKC
     FM291800 VRB06KT P6SM SKC WS020/06025KT
     FM300300 VRB05KT P6SM SKC WS020/06035KT=

USA.gov is the U.S. government's official web portal to all federal, state and local government web resources and services.